createdAt,value
2023-07-12T05:00:37.166Z,100480.38
2023-07-12T05:01:39.910Z,100471.03
2023-07-12T05:02:45.520Z,100483.08
2023-07-12T05:03:50.767Z,100480.58
2023-07-12T05:04:56.088Z,100486.50
2023-07-12T05:06:01.363Z,100478.63
2023-07-12T05:07:06.369Z,100479.49
2023-07-12T05:08:11.075Z,100485.41
2023-07-12T05:09:15.772Z,100465.00
2023-07-12T05:10:20.555Z,100465.82
2023-07-12T05:11:25.929Z,100466.60
2023-07-12T05:12:30.627Z,100469.42
2023-07-12T05:13:35.503Z,100472.27
2023-07-12T05:14:40.651Z,100468.69
2023-07-12T05:15:51.852Z,100477.42
2023-07-12T05:16:57.019Z,100473.34
2023-07-12T05:18:01.916Z,100469.23
2023-07-12T05:19:07.457Z,100470.52
2023-07-12T05:20:14.175Z,100467.47
2023-07-12T05:21:20.003Z,100474.86
2023-07-12T05:22:22.685Z,100468.98
2023-07-12T05:23:27.574Z,100461.05
2023-07-12T05:24:32.244Z,100461.02
2023-07-12T05:25:37.177Z,100461.79
2023-07-12T05:26:42.532Z,100459.74
2023-07-12T05:27:47.588Z,100458.97
2023-07-12T05:28:50.110Z,100455.14
2023-07-12T05:29:54.397Z,100445.67
2023-07-12T05:32:03.553Z,100446.19
2023-07-12T05:33:09.365Z,100443.91
2023-07-12T05:34:14.193Z,100451.59
2023-07-12T05:35:18.892Z,100455.67
2023-07-12T05:36:21.394Z,100452.09
2023-07-12T05:37:25.798Z,100455.94
2023-07-12T05:38:31.570Z,100459.00
2023-07-12T05:39:34.134Z,100456.44
2023-07-12T05:40:38.478Z,100459.00
2023-07-12T05:41:43.652Z,100456.70
2023-07-12T05:42:48.914Z,100452.86
2023-07-12T05:43:54.005Z,100443.91
2023-07-12T05:44:59.226Z,100439.30
2023-07-12T05:46:04.006Z,100446.98
2023-07-12T05:48:08.888Z,100436.96
2023-07-12T05:49:11.263Z,100441.02
2023-07-12T05:50:18.127Z,100443.56
2023-07-12T05:51:23.257Z,100438.20
2023-07-12T05:52:27.965Z,100432.57
2023-07-12T05:53:32.643Z,100426.94
2023-07-12T05:54:37.404Z,100427.67
2023-07-12T05:55:39.855Z,100424.59
2023-07-12T05:56:42.466Z,100435.61
2023-07-12T05:57:45.852Z,100423.83
2023-07-12T05:58:48.360Z,100431.75
2023-07-12T05:59:50.976Z,100433.02
2023-07-12T06:02:08.680Z,100438.08
2023-07-12T06:03:13.805Z,100441.42
2023-07-12T06:04:20.769Z,100430.92
2023-07-12T06:05:23.000Z,100436.05
2023-07-12T06:06:25.563Z,100432.46
2023-07-12T06:07:28.140Z,100434.26
2023-07-12T06:08:30.642Z,100437.84
2023-07-12T06:09:33.195Z,100444.74
2023-07-12T06:10:38.240Z,100439.86
2023-07-12T06:12:45.100Z,100445.92
2023-07-12T06:13:47.593Z,100441.55
2023-07-12T06:14:50.038Z,100441.30
2023-07-12T06:15:52.498Z,100438.22
2023-07-12T06:16:55.081Z,100433.84
2023-07-12T06:17:57.808Z,100437.17
2023-07-12T06:19:00.855Z,100427.19
2023-07-12T06:20:07.111Z,100424.37
2023-07-12T06:21:12.366Z,100431.02
2023-07-12T06:22:17.229Z,100437.70
2023-07-12T06:23:22.013Z,100426.94
2023-07-12T06:24:24.427Z,100422.59
2023-07-12T06:25:33.076Z,100428.99
2023-07-12T06:26:38.185Z,100431.30
2023-07-12T06:27:43.442Z,100433.09
2023-07-12T06:28:48.132Z,100421.83
2023-07-12T06:29:52.903Z,100425.91
2023-07-12T06:30:58.173Z,100427.90
2023-07-12T06:32:03.904Z,100424.81
2023-07-12T06:33:07.472Z,100427.63
2023-07-12T06:34:12.593Z,100426.59
2023-07-12T06:35:18.115Z,100426.06
2023-07-12T06:36:20.728Z,100421.44
2023-07-12T06:37:23.385Z,100426.04
2023-07-12T06:38:25.924Z,100425.22
2023-07-12T06:39:28.522Z,100425.70
2023-07-12T06:40:31.095Z,100424.08
2023-07-12T06:41:33.688Z,100423.52
2023-07-12T06:42:36.295Z,100425.01
2023-07-12T06:43:38.936Z,100420.06
2023-07-12T06:44:41.383Z,100416.44
2023-07-12T06:45:49.530Z,100416.92
2023-07-12T06:46:54.938Z,100412.00
2023-07-12T06:47:57.818Z,100404.75
2023-07-12T06:49:00.368Z,100408.81
2023-07-12T06:50:02.973Z,100411.35
2023-07-12T06:51:08.241Z,100408.77
2023-07-12T06:52:13.618Z,100415.94
2023-07-12T06:53:16.302Z,100408.77
2023-07-12T06:54:18.738Z,100411.83
2023-07-12T06:55:21.185Z,100415.34
2023-07-12T06:56:26.623Z,100416.03
2023-07-12T06:57:31.378Z,100417.48
2023-07-12T06:58:36.352Z,100417.43
2023-07-12T06:59:38.856Z,100415.61
2023-07-12T07:00:42.448Z,100418.38
2023-07-12T07:01:46.484Z,100407.61
2023-07-12T07:02:51.413Z,100409.81
2023-07-12T07:03:56.541Z,100406.02
2023-07-12T07:05:01.817Z,100407.38
2023-07-12T07:06:06.590Z,100405.08
2023-07-12T07:07:11.547Z,100409.66
2023-07-12T07:08:18.427Z,100404.02
2023-07-12T07:09:23.494Z,100405.02
2023-07-12T07:10:30.319Z,100405.46
2023-07-12T07:11:32.915Z,100410.91
2023-07-12T07:12:35.605Z,100418.29
2023-07-12T07:13:42.397Z,100403.40
2023-07-12T07:14:47.197Z,100404.78
2023-07-12T07:15:52.506Z,100398.24
2023-07-12T07:16:57.331Z,100397.72
2023-07-12T07:18:02.140Z,100401.02
2023-07-12T07:19:07.364Z,100401.55
2023-07-12T07:20:13.860Z,100399.77
2023-07-12T07:21:18.752Z,100391.48
2023-07-12T07:22:24.020Z,100403.48
2023-07-12T07:23:28.700Z,100408.28
2023-07-12T07:24:33.944Z,100408.52
2023-07-12T07:25:37.128Z,100410.91
2023-07-12T07:26:42.327Z,100414.17
2023-07-12T07:27:47.014Z,100418.23
2023-07-12T07:28:51.859Z,100421.00
2023-07-12T07:29:56.481Z,100415.81
2023-07-12T07:31:01.345Z,100413.96
2023-07-12T07:32:08.496Z,100403.98
2023-07-12T07:33:12.113Z,100404.52
2023-07-12T07:34:18.274Z,100399.39
2023-07-12T07:35:21.435Z,100396.86
2023-07-12T07:36:26.541Z,100395.10
2023-07-12T07:37:29.048Z,100396.09
2023-07-12T07:38:31.629Z,100390.69
2023-07-12T07:39:34.120Z,100389.86
2023-07-12T07:40:41.559Z,100389.77
2023-07-12T07:41:46.606Z,100390.99
2023-07-12T07:42:51.792Z,100392.52
2023-07-12T07:43:57.055Z,100388.47
2023-07-12T07:45:08.692Z,100382.14
2023-07-12T07:46:17.477Z,100384.20
2023-07-12T07:47:22.263Z,100385.70
2023-07-12T07:48:28.479Z,100385.17
2023-07-12T07:49:33.673Z,100381.05
2023-07-12T07:50:38.120Z,100381.91
2023-07-12T07:51:42.814Z,100387.03
2023-07-12T07:52:46.109Z,100386.47
2023-07-12T07:53:50.763Z,100394.41
2023-07-12T07:54:55.487Z,100386.39
2023-07-12T07:56:00.596Z,100394.86
2023-07-12T07:57:07.361Z,100396.63
2023-07-12T07:58:12.574Z,100398.98
2023-07-12T07:59:19.026Z,100394.63
2023-07-12T08:00:23.842Z,100392.42
2023-07-12T08:01:29.158Z,100387.55
2023-07-12T08:02:31.893Z,100380.13
2023-07-12T08:03:37.634Z,100385.30
2023-07-12T08:04:42.881Z,100385.84
2023-07-12T08:05:49.412Z,100384.30
2023-07-12T08:06:54.195Z,100377.13
2023-07-12T08:07:57.984Z,100371.24
2023-07-12T08:09:02.779Z,100369.95
2023-07-12T08:10:09.314Z,100374.06
2023-07-12T08:11:14.316Z,100370.42
2023-07-12T08:12:19.067Z,100368.53
2023-07-12T08:13:24.235Z,100366.91
2023-07-12T08:14:31.124Z,100370.97
2023-07-12T08:15:34.526Z,100366.09
2023-07-12T08:16:37.121Z,100377.92
2023-07-12T08:17:42.517Z,100376.24
2023-07-12T08:18:47.665Z,100375.06
2023-07-12T08:19:50.604Z,100377.66
2023-07-12T08:20:57.210Z,100379.95
2023-07-12T08:21:59.771Z,100378.12
2023-07-12T08:23:02.481Z,100371.95
2023-07-12T08:24:08.896Z,100375.24
2023-07-12T08:25:13.916Z,100376.24
2023-07-12T08:26:18.708Z,100377.22
2023-07-12T08:27:23.476Z,100379.27
2023-07-12T08:28:26.016Z,100382.33
2023-07-12T08:29:30.805Z,100378.38
2023-07-12T08:30:35.641Z,100375.94
2023-07-12T08:31:38.327Z,100374.27
2023-07-12T08:32:43.632Z,100380.28
2023-07-12T08:33:46.647Z,100375.59
2023-07-12T08:34:52.189Z,100379.34
2023-07-12T08:35:57.121Z,100361.73
2023-07-12T08:37:01.932Z,100373.73
2023-07-12T08:38:07.125Z,100366.47
2023-07-12T08:39:12.212Z,100379.73
2023-07-12T08:40:17.301Z,100379.13
2023-07-12T08:41:23.646Z,100370.55
2023-07-12T08:42:32.828Z,100364.13
2023-07-12T08:43:37.682Z,100367.05
2023-07-12T08:44:42.356Z,100357.88
2023-07-12T08:45:45.065Z,100364.30
2023-07-12T08:46:52.899Z,100362.77
2023-07-12T08:48:03.147Z,100362.00
2023-07-12T08:49:08.043Z,100365.83
2023-07-12T08:50:13.958Z,100364.98
2023-07-12T08:51:18.278Z,100364.67
2023-07-12T08:52:23.575Z,100367.95
2023-07-12T08:53:28.038Z,100357.40
2023-07-12T08:54:31.091Z,100365.75
2023-07-12T08:55:35.775Z,100367.81
2023-07-12T08:56:40.886Z,100368.34
2023-07-12T08:57:45.751Z,100368.12
2023-07-12T08:58:50.271Z,100371.36
2023-07-12T09:01:12.076Z,100359.59
2023-07-12T09:03:26.626Z,100360.74
2023-07-12T09:04:33.385Z,100363.14
2023-07-12T09:05:38.290Z,100356.92
2023-07-12T09:06:44.060Z,100364.33
2023-07-12T09:07:53.384Z,100365.55
2023-07-12T09:08:58.220Z,100353.62
2023-07-12T09:10:02.895Z,100356.34
2023-07-12T09:11:09.784Z,100356.72
2023-07-12T09:13:37.180Z,100339.32
2023-07-12T09:14:42.185Z,100348.03
2023-07-12T09:15:50.417Z,100346.52
2023-07-12T09:17:00.982Z,100340.62
2023-07-12T09:18:08.912Z,100341.95
2023-07-12T09:19:22.293Z,100340.51
2023-07-12T09:20:27.684Z,100345.08
2023-07-12T09:21:33.395Z,100350.75
2023-07-12T09:22:39.792Z,100351.64
2023-07-12T09:23:46.857Z,100345.20
2023-07-12T09:24:57.484Z,100347.50
2023-07-12T09:26:02.862Z,100341.61
2023-07-12T09:27:10.104Z,100341.07
2023-07-12T09:28:16.237Z,100343.58
2023-07-12T09:29:22.919Z,100343.80
2023-07-12T09:30:29.703Z,100344.56
2023-07-12T09:31:35.432Z,100343.58
2023-07-12T09:32:40.351Z,100351.19
2023-07-12T09:33:47.580Z,100348.67
2023-07-12T09:34:53.359Z,100345.84
2023-07-12T09:35:57.994Z,100353.62
2023-07-12T09:37:03.030Z,100359.83
2023-07-12T09:39:20.712Z,100358.91
2023-07-12T09:40:25.416Z,100354.55
2023-07-12T09:41:31.134Z,100343.23
2023-07-12T09:42:35.864Z,100347.72
2023-07-12T09:43:40.821Z,100340.84
2023-07-12T09:44:50.028Z,100348.70
2023-07-12T09:47:15.567Z,100343.56
2023-07-12T09:48:51.539Z,100340.30
2023-07-12T09:49:59.885Z,100340.95
2023-07-12T09:52:35.799Z,100339.17
2023-07-12T09:53:45.062Z,100331.03
2023-07-12T09:55:08.900Z,100334.48
2023-07-12T09:56:18.360Z,100341.77
2023-07-12T09:58:40.851Z,100332.99
2023-07-12T10:00:00.994Z,100333.20
2023-07-12T10:02:36.117Z,100328.02
2023-07-12T10:03:41.764Z,100325.95
2023-07-12T10:04:52.769Z,100321.97
2023-07-12T10:06:06.818Z,100330.14
2023-07-12T10:12:47.807Z,100321.72
2023-07-12T10:13:58.141Z,100326.34
2023-07-12T10:15:02.891Z,100330.11
2023-07-12T10:16:09.665Z,100323.05
2023-07-12T10:17:34.390Z,100336.41
2023-07-12T10:18:37.616Z,100328.58
2023-07-12T10:19:42.694Z,100328.46
2023-07-12T10:20:47.927Z,100330.69
2023-07-12T10:21:51.967Z,100329.50
2023-07-12T10:22:57.003Z,100332.13
2023-07-12T10:24:02.599Z,100325.91
2023-07-12T10:25:09.767Z,100327.42
2023-07-12T10:26:15.920Z,100325.91
2023-07-12T10:27:29.621Z,100330.59
2023-07-12T10:29:03.915Z,100328.98
2023-07-12T10:30:12.507Z,100321.50
2023-07-12T10:31:42.760Z,100321.28
2023-07-12T10:33:25.625Z,100329.03
2023-07-12T10:34:36.624Z,100318.92
2023-07-12T10:37:06.538Z,100317.26
2023-07-12T10:38:15.036Z,100309.56
2023-07-12T10:39:20.745Z,100316.53
2023-07-12T10:40:28.435Z,100311.42
2023-07-12T10:41:38.604Z,100313.16
2023-07-12T10:42:44.667Z,100305.52
2023-07-12T10:44:58.720Z,100307.84
2023-07-12T10:46:08.911Z,100301.84
2023-07-12T10:47:14.479Z,100303.69
2023-07-12T10:48:22.640Z,100302.42
2023-07-12T10:49:49.219Z,100300.42
2023-07-12T10:50:56.593Z,100300.12
2023-07-12T10:52:15.072Z,100300.75
2023-07-12T10:53:36.222Z,100305.91
2023-07-12T10:54:36.275Z,100300.16
2023-07-12T10:56:01.466Z,100300.84
2023-07-12T10:58:24.587Z,100297.38
2023-07-12T10:59:35.954Z,100295.80
2023-07-12T11:00:44.292Z,100292.95
2023-07-12T11:03:17.657Z,100293.41
2023-07-12T11:04:37.285Z,100289.36
2023-07-12T11:05:59.628Z,100298.08
2023-07-12T11:07:06.791Z,100289.77
2023-07-12T11:08:35.077Z,100291.28
2023-07-12T11:09:47.737Z,100294.48
2023-07-12T11:10:52.866Z,100287.83
2023-07-12T11:12:03.811Z,100287.08
2023-07-12T11:13:14.632Z,100294.07
2023-07-12T11:14:20.044Z,100296.00
2023-07-12T11:16:35.934Z,100291.20
2023-07-12T11:18:03.925Z,100296.27
2023-07-12T11:19:12.943Z,100293.64
2023-07-12T11:20:26.906Z,100297.39
2023-07-12T11:21:49.305Z,100300.23
2023-07-12T11:23:03.439Z,100297.80
2023-07-12T11:25:52.935Z,100300.50
2023-07-12T11:26:57.356Z,100297.59
2023-07-12T11:28:04.212Z,100300.56
2023-07-12T11:29:24.661Z,100301.27
2023-07-12T11:30:33.696Z,100295.77
2023-07-12T11:31:38.943Z,100293.48
2023-07-12T11:32:43.984Z,100300.28
2023-07-12T11:34:15.169Z,100294.95
2023-07-12T11:35:20.640Z,100297.59
2023-07-12T11:38:50.569Z,100299.31
2023-07-12T11:39:55.612Z,100292.26
2023-07-12T11:42:27.861Z,100289.62
2023-07-12T11:43:35.294Z,100287.87
2023-07-12T11:44:39.949Z,100292.41
2023-07-12T11:45:45.108Z,100290.33
2023-07-12T11:46:50.125Z,100288.66
2023-07-12T11:47:54.392Z,100297.03
2023-07-12T11:49:14.605Z,100288.10
2023-07-12T11:50:28.056Z,100289.95
2023-07-12T11:51:37.354Z,100296.18
2023-07-12T11:52:41.995Z,100287.34
2023-07-12T11:53:58.550Z,100287.40
2023-07-12T11:55:06.064Z,100284.00
2023-07-12T11:56:15.013Z,100286.08
2023-07-12T11:57:19.693Z,100288.57
2023-07-12T11:58:26.517Z,100278.34
2023-07-12T11:59:33.759Z,100286.92
2023-07-12T12:00:38.497Z,100283.73
2023-07-12T12:01:43.574Z,100286.21
2023-07-12T12:02:53.280Z,100288.67
2023-07-12T12:03:58.673Z,100292.11
2023-07-12T12:05:06.647Z,100290.64
2023-07-12T12:06:12.375Z,100288.56
2023-07-12T12:07:26.807Z,100276.79
2023-07-12T12:08:31.550Z,100285.52
2023-07-12T12:09:38.910Z,100280.44
2023-07-12T12:10:43.684Z,100276.08
2023-07-12T12:11:46.355Z,100281.61
2023-07-12T12:12:49.779Z,100276.16
2023-07-12T12:13:55.814Z,100275.52
2023-07-12T12:15:00.698Z,100278.91
2023-07-12T12:17:21.730Z,100270.70
2023-07-12T12:18:26.675Z,100271.96
2023-07-12T12:19:31.873Z,100279.88
2023-07-12T12:20:37.264Z,100271.33
2023-07-12T12:21:55.782Z,100265.80
2023-07-12T12:23:07.457Z,100260.27
2023-07-12T12:24:18.325Z,100265.33
2023-07-12T12:26:40.955Z,100264.56
2023-07-12T12:27:45.718Z,100267.87
2023-07-12T12:29:04.063Z,100271.40
2023-07-12T12:30:21.258Z,100264.41
2023-07-12T12:31:28.044Z,100264.83
2023-07-12T12:32:31.184Z,100261.67
2023-07-12T12:33:36.078Z,100252.45
2023-07-12T12:34:40.927Z,100254.79
2023-07-12T12:38:24.027Z,100258.42
2023-07-12T12:39:29.008Z,100262.94
2023-07-12T12:40:34.112Z,100260.14
2023-07-12T12:41:39.448Z,100261.67
2023-07-12T12:43:07.151Z,100251.86
2023-07-12T12:44:15.402Z,100250.41
2023-07-12T12:45:17.905Z,100253.45
2023-07-12T12:46:23.722Z,100243.80
2023-07-12T12:47:30.969Z,100241.71
2023-07-12T12:54:12.682Z,100234.00
2023-07-12T12:55:33.229Z,100230.97
2023-07-12T13:01:14.755Z,100231.16
2023-07-12T13:05:31.270Z,100224.31
2023-07-12T13:06:23.581Z,100223.72
2023-07-12T13:09:04.986Z,100227.91
2023-07-12T13:19:40.068Z,100209.76
2023-07-12T13:20:42.377Z,100215.80
2023-07-12T13:21:45.586Z,100213.52
2023-07-12T13:22:48.896Z,100211.84
2023-07-12T13:23:51.403Z,100205.96
2023-07-12T13:24:55.720Z,100203.13
2023-07-12T13:26:01.618Z,100205.20
2023-07-12T13:27:04.267Z,100206.28
2023-07-12T13:28:10.128Z,100204.19
2023-07-12T13:29:19.575Z,100195.06
2023-07-12T13:30:22.918Z,100195.42
2023-07-12T13:31:25.447Z,100192.79
2023-07-12T13:32:28.223Z,100198.87
2023-07-12T13:33:30.702Z,100192.23
2023-07-12T13:36:50.565Z,100189.03
2023-07-12T13:39:28.385Z,100185.47
2023-07-12T13:40:22.713Z,100182.63
2023-07-12T13:42:43.921Z,100172.95
2023-07-12T13:45:15.514Z,100165.34
2023-07-12T13:45:49.771Z,100169.86
2023-07-12T13:46:52.490Z,100169.11
2023-07-12T13:47:57.707Z,100164.58
2023-07-12T13:49:02.489Z,100163.86
2023-07-12T13:50:09.271Z,100164.82
2023-07-12T13:51:22.653Z,100167.66
2023-07-12T13:52:26.914Z,100179.19
2023-07-12T13:53:33.186Z,100165.91
2023-07-12T13:54:37.514Z,100170.06
2023-07-12T13:56:48.366Z,100158.91
2023-07-12T13:57:53.621Z,100157.02
2023-07-12T14:01:24.950Z,100161.59
2023-07-12T14:03:43.113Z,100163.92
2023-07-12T14:04:53.190Z,100165.58
2023-07-12T14:05:58.105Z,100164.27
2023-07-12T14:07:14.427Z,100168.06
2023-07-12T14:09:10.433Z,100175.63
2023-07-12T14:10:20.738Z,100170.31
2023-07-12T14:11:31.058Z,100173.91
2023-07-12T14:12:33.690Z,100168.62
2023-07-12T14:13:36.122Z,100171.26
2023-07-12T14:14:38.556Z,100171.46
2023-07-12T14:15:40.919Z,100173.70
2023-07-12T14:16:43.454Z,100172.34
2023-07-12T14:17:46.067Z,100170.83
2023-07-12T14:18:50.881Z,100173.67
2023-07-12T14:19:57.691Z,100167.62
2023-07-12T14:21:01.450Z,100170.66
2023-07-12T14:22:07.335Z,100166.70
2023-07-12T14:24:21.651Z,100172.22
2023-07-12T14:25:26.556Z,100178.07
2023-07-12T14:26:29.187Z,100178.47
2023-07-12T14:27:36.178Z,100167.50
2023-07-12T14:28:41.595Z,100178.50
2023-07-12T14:31:56.087Z,100167.14
2023-07-12T14:33:00.393Z,100174.34
2023-07-12T14:34:02.783Z,100162.97
2023-07-12T14:35:10.158Z,100168.85
2023-07-12T14:36:16.766Z,100170.54
2023-07-12T14:37:21.556Z,100172.06
2023-07-12T14:38:27.250Z,100171.86
2023-07-12T14:39:32.358Z,100171.30
2023-07-12T14:40:37.365Z,100169.78
2023-07-12T14:41:44.264Z,100162.58
2023-07-12T14:42:47.156Z,100172.81
2023-07-12T14:43:52.498Z,100172.63
2023-07-12T14:44:55.179Z,100164.69
2023-07-12T14:45:57.680Z,100162.23
2023-07-12T14:47:01.336Z,100172.28
2023-07-12T14:49:18.885Z,100165.81
2023-07-12T14:50:21.636Z,100169.75
2023-07-12T14:51:24.794Z,100165.19
2023-07-12T14:53:42.047Z,100165.22
2023-07-12T14:55:53.254Z,100163.50
2023-07-12T14:57:08.908Z,100161.58
2023-07-12T14:58:18.702Z,100155.70
2023-07-12T15:00:23.869Z,100161.02
2023-07-12T15:01:29.533Z,100161.58
2023-07-12T15:02:34.126Z,100155.14
2023-07-12T15:03:41.380Z,100153.06
2023-07-12T15:04:46.038Z,100157.98
2023-07-12T15:05:52.684Z,100152.86
2023-07-12T15:06:57.868Z,100149.46
2023-07-12T15:08:01.565Z,100154.58
2023-07-12T15:09:08.305Z,100143.78
2023-07-12T15:10:15.612Z,100150.58
2023-07-12T15:11:20.662Z,100152.83
2023-07-12T15:12:43.265Z,100151.13
2023-07-12T15:13:48.581Z,100149.78
2023-07-12T15:14:53.227Z,100150.74
2023-07-12T15:15:58.416Z,100156.06
2023-07-12T15:17:01.093Z,100148.86
2023-07-12T15:18:18.622Z,100139.58
2023-07-12T15:19:24.034Z,100147.34
2023-07-12T15:20:26.916Z,100148.86
2023-07-12T15:21:33.381Z,100150.19
2023-07-12T15:22:36.449Z,100144.50
2023-07-12T15:23:41.139Z,100141.47
2023-07-12T15:24:43.651Z,100146.19
2023-07-12T15:25:47.486Z,100136.34
2023-07-12T15:26:52.561Z,100132.14
2023-07-12T15:27:57.808Z,100135.34
2023-07-12T15:29:02.573Z,100135.70
2023-07-12T15:30:08.927Z,100135.30
2023-07-12T15:31:19.988Z,100136.41
2023-07-12T15:32:24.690Z,100136.41
2023-07-12T15:33:30.487Z,100131.30
2023-07-12T15:34:35.850Z,100136.56
2023-07-12T15:35:40.944Z,100132.77
2023-07-12T15:36:46.162Z,100137.12
2023-07-12T15:37:50.291Z,100140.17
2023-07-12T15:38:55.649Z,100137.53
2023-07-12T15:40:00.933Z,100141.33
2023-07-12T15:42:22.073Z,100146.34
2023-07-12T15:44:56.885Z,100139.14
2023-07-12T15:46:00.370Z,100142.69
2023-07-12T15:47:06.740Z,100139.47
2023-07-12T15:48:21.191Z,100141.42
2023-07-12T15:49:26.289Z,100143.70
2023-07-12T15:50:31.276Z,100139.73
2023-07-12T15:51:39.399Z,100136.53
2023-07-12T15:52:45.710Z,100135.59
2023-07-12T15:53:49.425Z,100141.10
2023-07-12T15:54:54.192Z,100139.22
2023-07-12T15:55:59.305Z,100140.55
2023-07-12T15:57:04.425Z,100137.70
2023-07-12T15:58:26.493Z,100135.63
2023-07-12T15:59:31.202Z,100138.46
2023-07-12T16:00:35.689Z,100138.63
2023-07-12T16:01:40.617Z,100139.38
2023-07-12T16:02:45.415Z,100136.14
2023-07-12T16:03:51.171Z,100133.46
2023-07-12T16:04:56.027Z,100135.70
2023-07-12T16:05:59.547Z,100138.13
2023-07-12T16:07:04.582Z,100135.66
2023-07-12T16:08:10.177Z,100132.61
2023-07-12T16:09:15.407Z,100134.69
2023-07-12T16:10:20.563Z,100133.93
2023-07-12T16:11:31.850Z,100136.21
2023-07-12T16:12:36.299Z,100130.53
2023-07-12T16:13:54.543Z,100125.22
2023-07-12T16:14:47.767Z,100132.01
2023-07-12T16:15:53.949Z,100132.95
2023-07-12T16:16:59.168Z,100137.46
2023-07-12T16:18:04.653Z,100130.62
2023-07-12T16:19:09.913Z,100125.09
2023-07-12T16:20:15.578Z,100126.23
2023-07-12T16:22:31.268Z,100123.62
2023-07-12T16:23:38.528Z,100127.73
2023-07-12T16:24:43.667Z,100123.02
2023-07-12T16:25:48.319Z,100130.01
2023-07-12T16:26:53.671Z,100128.89
2023-07-12T16:27:58.509Z,100134.42
2023-07-12T16:29:04.164Z,100130.88
2023-07-12T16:30:12.313Z,100137.17
2023-07-12T16:31:27.130Z,100136.34
2023-07-12T16:32:32.055Z,100130.73
2023-07-12T16:33:37.151Z,100125.13
2023-07-12T16:34:41.810Z,100132.54
2023-07-12T16:35:44.630Z,100123.41
2023-07-12T16:36:51.573Z,100122.92
2023-07-12T16:37:56.271Z,100125.09
2023-07-12T16:39:01.881Z,100120.93
2023-07-12T16:40:08.388Z,100123.00
2023-07-12T16:42:27.540Z,100123.72
2023-07-12T16:43:33.459Z,100115.43
2023-07-12T16:44:38.570Z,100116.97
2023-07-12T16:45:43.260Z,100113.51
2023-07-12T16:46:48.166Z,100115.96
2023-07-12T16:47:54.963Z,100117.24
2023-07-12T16:49:00.199Z,100114.83
2023-07-12T16:50:06.992Z,100114.29
2023-07-12T16:51:20.834Z,100115.27
2023-07-12T16:52:25.971Z,100116.66
2023-07-12T16:53:36.487Z,100119.36
2023-07-12T16:54:41.116Z,100116.72
2023-07-12T16:55:47.274Z,100114.87
2023-07-12T16:56:52.854Z,100115.84
2023-07-12T16:57:57.987Z,100119.08
2023-07-12T16:59:02.758Z,100121.53
2023-07-12T17:01:26.626Z,100125.69
2023-07-12T17:02:31.489Z,100127.14
2023-07-12T17:03:35.685Z,100122.06
2023-07-12T17:04:40.698Z,100130.04
2023-07-12T17:05:45.493Z,100137.58
2023-07-12T17:06:50.826Z,100130.99
2023-07-12T17:07:55.507Z,100125.44
2023-07-12T17:09:01.141Z,100129.06
2023-07-12T17:10:05.566Z,100124.98
2023-07-12T17:11:13.626Z,100121.21
2023-07-12T17:13:35.910Z,100118.43
2023-07-12T17:14:41.127Z,100118.46
2023-07-12T17:15:46.975Z,100122.73
2023-07-12T17:16:52.847Z,100112.89
2023-07-12T17:17:59.529Z,100115.20
2023-07-12T17:19:05.027Z,100118.41
2023-07-12T17:20:11.847Z,100117.61
2023-07-12T17:21:18.736Z,100111.72
2023-07-12T17:22:23.673Z,100118.69
2023-07-12T17:23:30.380Z,100125.59
2023-07-12T17:24:35.573Z,100122.05
2023-07-12T17:25:40.269Z,100119.43
2023-07-12T17:27:53.040Z,100124.00
2023-07-12T17:28:57.594Z,100129.69
2023-07-12T17:30:02.296Z,100131.20
2023-07-12T17:31:19.803Z,100130.95
2023-07-12T17:32:27.942Z,100137.73
2023-07-12T17:33:33.064Z,100135.63
2023-07-12T17:34:38.163Z,100133.14
2023-07-12T17:35:43.528Z,100131.71
2023-07-12T17:36:48.386Z,100134.69
2023-07-12T17:37:53.472Z,100129.35
2023-07-12T17:38:58.131Z,100129.66
2023-07-12T17:40:08.510Z,100128.67
2023-07-12T17:41:11.142Z,100138.64
2023-07-12T17:42:15.711Z,100131.59
2023-07-12T17:44:31.102Z,100133.50
2023-07-12T17:45:35.870Z,100126.35
2023-07-12T17:46:40.671Z,100130.88
2023-07-12T17:47:45.480Z,100134.06
2023-07-12T17:48:50.193Z,100126.45
2023-07-12T17:49:55.385Z,100130.40
2023-07-12T17:50:59.586Z,100121.27
2023-07-12T17:52:04.535Z,100131.46
2023-07-12T17:54:21.079Z,100129.18
2023-07-12T17:55:25.855Z,100132.44
2023-07-12T17:56:31.181Z,100131.81
2023-07-12T17:57:36.948Z,100137.05
2023-07-12T17:58:41.710Z,100135.87
2023-07-12T17:59:45.895Z,100126.73
2023-07-12T18:00:52.334Z,100132.53
2023-07-12T18:01:57.089Z,100134.17
2023-07-12T18:03:01.963Z,100133.35
2023-07-12T18:04:05.854Z,100127.81
2023-07-12T18:06:24.893Z,100134.36
2023-07-12T18:07:30.118Z,100141.92
2023-07-12T18:08:34.748Z,100141.27
2023-07-12T18:09:40.117Z,100145.77
2023-07-12T18:11:58.490Z,100146.53
2023-07-12T18:13:02.759Z,100143.45
2023-07-12T18:14:07.525Z,100147.95
2023-07-12T18:15:22.198Z,100137.50
2023-07-12T18:16:28.003Z,100143.48
2023-07-12T18:17:32.923Z,100147.18
2023-07-12T18:18:38.281Z,100145.24
2023-07-12T18:19:42.954Z,100152.53
2023-07-12T18:20:48.981Z,100153.61
2023-07-12T18:21:53.667Z,100150.88
2023-07-12T18:22:58.882Z,100144.78
2023-07-12T18:24:04.807Z,100145.67
2023-07-12T18:25:18.708Z,100145.99
2023-07-12T18:26:23.063Z,100151.97
2023-07-12T18:27:28.470Z,100152.06
2023-07-12T18:28:33.251Z,100156.53
2023-07-12T18:29:38.383Z,100158.16
2023-07-12T18:30:44.070Z,100158.25
2023-07-12T18:31:49.328Z,100157.01
2023-07-12T18:32:54.150Z,100162.23
2023-07-12T18:34:00.527Z,100165.91
2023-07-12T18:35:04.887Z,100166.77
2023-07-12T18:36:12.072Z,100164.25
2023-07-12T18:37:16.806Z,100168.15
2023-07-12T18:38:22.445Z,100168.48
2023-07-12T18:39:27.748Z,100172.38
2023-07-12T18:40:32.549Z,100169.87
2023-07-12T18:41:37.176Z,100174.53
2023-07-12T18:42:41.987Z,100172.77
2023-07-12T18:43:46.722Z,100165.38
2023-07-12T18:44:51.582Z,100171.89
2023-07-12T18:45:56.908Z,100171.44
2023-07-12T18:47:02.170Z,100176.63
2023-07-12T18:48:08.504Z,100174.10
2023-07-12T18:49:10.912Z,100178.00
2023-07-12T18:50:16.711Z,100176.27
2023-07-12T18:51:28.038Z,100173.22
2023-07-12T18:52:32.673Z,100163.75
2023-07-12T18:53:37.480Z,100164.81
2023-07-12T18:54:40.693Z,100171.00
2023-07-12T18:55:45.421Z,100164.33
2023-07-12T18:56:50.184Z,100172.56
2023-07-12T18:57:56.174Z,100168.75
2023-07-12T18:59:01.877Z,100174.72
2023-07-12T19:00:07.148Z,100167.55
2023-07-12T19:01:23.762Z,100175.78
2023-07-12T19:02:29.330Z,100159.91
2023-07-12T19:04:44.942Z,100164.95
2023-07-12T19:05:49.986Z,100163.34
2023-07-12T19:06:55.037Z,100170.28
2023-07-12T19:07:59.711Z,100170.81
2023-07-12T19:09:04.414Z,100174.19
2023-07-12T19:10:13.690Z,100159.84
2023-07-12T19:11:34.704Z,100168.31
2023-07-12T19:12:39.478Z,100164.73